Time;durP1;ratioP1;P1;durP2;ratioP2;P2;SDS_P1;SDS_P2;PMS_P1;PMS_P2;Temp;Humidity;BMP_temperature;BMP_pressure;BME280_temperature;BME280_humidity;BME280_pressure;Samples;Min_cycle;Max_cycle;Signal;HPM_P1;HPM_P2
2022/05/25 00:00:08;;;;;;;6.28;5.68;;;;;;;9.79;100.00;101199.75;4968059;28;20155;-67
2022/05/25 00:02:33;;;;;;;7.93;5.55;;;;;;;9.78;100.00;101197.09;4968539;28;20414;-68
2022/05/25 00:04:59;;;;;;;6.63;6.03;;;;;;;9.78;100.00;101197.97;4968507;28;20037;-68
2022/05/25 00:07:24;;;;;;;6.93;6.10;;;;;;;9.79;100.00;101204.91;4967955;28;20035;-67
2022/05/25 00:09:50;;;;;;;6.85;6.20;;;;;;;9.80;100.00;101209.28;4968058;28;20038;-68
2022/05/25 00:12:17;;;;;;;6.80;6.30;;;;;;;9.81;100.00;101202.38;4968273;28;20023;-67
2022/05/25 00:14:42;;;;;;;6.28;5.78;;;;;;;9.82;100.00;101205.03;4966912;28;20282;-67
2022/05/25 00:17:07;;;;;;;6.40;5.65;;;;;;;9.79;100.00;101204.91;4967566;28;20034;-67
2022/05/25 00:22:17;;;;;;;7.32;6.63;;;;;;;9.75;100.00;101215.94;4968469;28;20045;-67
2022/05/25 00:24:42;;;;;;;7.05;6.35;;;;;;;9.71;100.00;101219.25;4967675;28;20039;-68
2022/05/25 00:27:08;;;;;;;7.13;6.43;;;;;;;9.68;100.00;101208.75;4968184;28;20041;-67
2022/05/25 00:29:33;;;;;;;7.80;6.55;;;;;;;9.67;100.00;101210.47;4967577;28;20399;-67
2022/05/25 00:31:59;;;;;;;7.25;6.47;;;;;;;9.65;100.00;101206.03;4967977;28;20039;-67
2022/05/25 00:34:24;;;;;;;7.80;6.53;;;;;;;9.65;100.00;101221.56;4968132;28;20034;-68
2022/05/25 00:36:50;;;;;;;7.20;6.40;;;;;;;9.59;100.00;101212.72;4967865;28;20031;-67
2022/05/25 00:39:15;;;;;;;7.05;6.45;;;;;;;9.57;100.00;101214.38;4967909;28;20034;-68
2022/05/25 00:41:40;;;;;;;8.73;7.38;;;;;;;9.55;100.00;101218.59;4968670;28;20038;-67
2022/05/25 00:44:06;;;;;;;8.52;7.70;;;;;;;9.51;100.00;101208.94;4971680;28;20029;-67
2022/05/25 00:46:34;;;;;;;9.23;8.30;;;;;;;9.46;100.00;101208.72;4971824;28;20045;-68
2022/05/25 00:49:06;;;;;;;9.32;8.48;;;;;;;9.45;100.00;101211.25;4971789;28;20038;-67
2022/05/25 00:51:52;;;;;;;9.20;8.43;;;;;;;9.43;100.00;101212.91;4971771;28;20031;-68
2022/05/25 00:54:23;;;;;;;10.80;9.68;;;;;;;9.40;100.00;101212.78;4971831;28;20035;-68
2022/05/25 00:56:51;;;;;;;13.95;9.73;;;;;;;9.39;100.00;101222.22;4971607;28;20085;-67
2022/05/25 00:59:21;;;;;;;10.05;9.07;;;;;;;9.43;100.00;101218.06;4971459;28;20031;-67
2022/05/25 01:01:46;;;;;;;8.88;8.07;;;;;;;9.45;100.00;101219.91;4971382;28;20391;-67
2022/05/25 01:04:12;;;;;;;9.32;8.30;;;;;;;9.46;100.00;101228.56;4971648;28;20035;-68
2022/05/25 01:06:46;;;;;;;8.57;7.65;;;;;;;9.44;100.00;101232.78;4970864;28;20065;-68
2022/05/25 01:09:36;;;;;;;9.65;8.75;;;;;;;9.41;100.00;101237.84;4956382;28;20063;-67
2022/05/25 01:12:24;;;;;;;9.15;8.32;;;;;;;9.32;100.00;101234.00;4953071;28;20027;-68
2022/05/25 01:15:07;;;;;;;9.00;8.20;;;;;;;9.28;100.00;101242.47;4955596;28;20066;-67
2022/05/25 01:17:55;;;;;;;12.27;9.45;;;;;;;9.22;100.00;101237.91;4971327;28;20072;-67
2022/05/25 01:20:40;;;;;;;10.50;9.43;;;;;;;9.21;100.00;101240.44;4971507;28;20240;-67
2022/05/25 01:23:33;;;;;;;9.93;9.07;;;;;;;9.17;100.00;101234.25;4970851;28;20034;-67
2022/05/25 01:26:30;;;;;;;10.80;9.70;;;;;;;9.17;100.00;101238.53;4971333;28;20077;-68
2022/05/25 01:29:01;;;;;;;9.75;8.95;;;;;;;9.15;100.00;101234.97;4971272;28;20027;-67
2022/05/25 01:32:02;;;;;;;11.57;10.43;;;;;;;9.16;100.00;101236.75;4970693;28;20037;-68
2022/05/25 01:34:49;;;;;;;11.15;10.05;;;;;;;9.16;100.00;101237.63;4971258;28;20106;-67
2022/05/25 01:37:22;;;;;;;10.23;9.43;;;;;;;9.19;100.00;101242.06;4970810;28;20027;-67
2022/05/25 01:40:07;;;;;;;10.52;9.60;;;;;;;9.17;100.00;101239.41;4971154;28;20222;-67
2022/05/25 01:42:50;;;;;;;12.90;11.38;;;;;;;9.16;100.00;101242.81;4970450;28;20038;-67
2022/05/25 01:45:17;;;;;;;12.13;9.07;;;;;;;9.15;100.00;101242.72;4970711;28;20049;-67
2022/05/25 01:47:49;;;;;;;10.77;9.88;;;;;;;9.12;100.00;101246.09;4970646;28;20026;-67
2022/05/25 01:50:20;;;;;;;11.13;10.13;;;;;;;9.10;100.00;101248.56;4970855;28;20027;-67
2022/05/25 01:52:53;;;;;;;11.10;10.00;;;;;;;9.09;100.00;101246.81;4971001;28;20085;-67
2022/05/25 01:55:26;;;;;;;12.55;11.32;;;;;;;9.12;100.00;101249.53;4970761;28;20023;-67
2022/05/25 01:58:00;;;;;;;11.80;10.73;;;;;;;9.15;100.00;101245.31;4969839;28;20027;-67
2022/05/25 02:00:34;;;;;;;9.80;8.90;;;;;;;9.13;100.00;101247.84;4970433;28;20035;-67
2022/05/25 02:05:57;;;;;;;11.05;10.05;;;;;;;9.08;100.00;101250.25;4970765;28;20046;-67
2022/05/25 02:08:47;;;;;;;9.93;8.98;;;;;;;9.08;100.00;101245.06;4970380;28;20041;-67
2022/05/25 02:11:21;;;;;;;9.90;8.80;;;;;;;9.06;100.00;101246.69;4970098;28;20035;-68
2022/05/25 02:14:06;;;;;;;9.52;8.63;;;;;;;9.04;100.00;101250.91;4951637;28;20415;-67
2022/05/25 02:16:50;;;;;;;11.32;10.32;;;;;;;9.05;100.00;101252.66;4951866;28;20038;-67
2022/05/25 02:19:21;;;;;;;11.95;10.75;;;;;;;9.08;100.00;101254.50;4951698;28;20041;-68
2022/05/25 02:22:18;;;;;;;11.20;10.23;;;;;;;9.10;100.00;101252.88;4951627;28;20039;-67
2022/05/25 02:25:22;;;;;;;10.90;9.95;;;;;;;9.09;100.00;101252.00;4966447;28;20055;-68
2022/05/25 02:27:55;;;;;;;12.30;11.13;;;;;;;9.06;100.00;101254.44;4962173;28;20495;-68
2022/05/25 02:30:24;;;;;;;16.40;11.93;;;;;;;9.03;100.00;101251.69;4969868;28;20022;-68
2022/05/25 02:32:58;;;;;;;11.57;10.45;;;;;;;9.03;100.00;101259.47;4969968;28;20026;-67
2022/05/25 02:35:25;;;;;;;10.82;9.77;;;;;;;9.01;100.00;101264.56;4970162;28;20066;-67
2022/05/25 02:37:52;;;;;;;11.55;10.45;;;;;;;9.01;100.00;101261.13;4970462;28;20095;-67
2022/05/25 02:40:18;;;;;;;11.77;10.60;;;;;;;9.03;100.00;101261.19;4969780;28;20034;-68
2022/05/25 02:42:44;;;;;;;12.95;10.32;;;;;;;9.02;100.00;101260.28;4969678;28;20042;-67
2022/05/25 02:45:11;;;;;;;10.02;8.98;;;;;;;9.01;100.00;101263.69;4969989;28;20263;-67
2022/05/25 02:47:37;;;;;;;10.70;9.55;;;;;;;9.01;100.00;101272.31;4969857;28;20062;-67
2022/05/25 02:50:02;;;;;;;9.65;8.75;;;;;;;9.03;100.00;101268.94;4969562;28;20061;-67
2022/05/25 02:52:28;;;;;;;9.95;8.82;;;;;;;9.04;100.00;101269.00;4969726;28;20022;-67
2022/05/25 02:54:53;;;;;;;9.57;8.68;;;;;;;9.03;100.00;101269.81;4969059;28;20041;-67
2022/05/25 02:57:18;;;;;;;10.43;9.13;;;;;;;9.03;100.00;101276.69;4969730;28;20065;-67
2022/05/25 02:59:44;;;;;;;11.13;8.68;;;;;;;9.05;100.00;101277.66;4969795;28;20070;-68
2022/05/25 03:02:09;;;;;;;8.85;7.43;;;;;;;9.07;100.00;101276.00;4969466;28;20403;-67
2022/05/25 03:04:37;;;;;;;11.15;7.50;;;;;;;9.05;100.00;101278.50;4968773;28;20030;-67
2022/05/25 03:07:03;;;;;;;8.27;7.50;;;;;;;9.07;100.00;101274.31;4968587;28;20035;-67
2022/05/25 03:09:28;;;;;;;8.20;7.35;;;;;;;9.08;100.00;101280.38;4969187;28;20110;-67
2022/05/25 03:11:54;;;;;;;9.63;7.80;;;;;;;9.11;100.00;101280.50;4969583;28;20235;-67
2022/05/25 03:14:20;;;;;;;10.35;7.38;;;;;;;9.10;100.00;101284.78;4969096;28;20366;-67
2022/05/25 03:16:45;;;;;;;9.70;7.55;;;;;;;9.07;100.00;101289.81;4969504;28;20019;-68
2022/05/25 03:19:10;;;;;;;8.82;7.43;;;;;;;9.05;100.00;101285.41;4968720;28;20087;-67
2022/05/25 03:21:35;;;;;;;9.40;7.05;;;;;;;9.05;100.00;101294.03;4968504;28;20133;-67
2022/05/25 03:24:01;;;;;;;8.13;7.28;;;;;;;9.06;100.00;101298.41;4967135;28;20034;-67
2022/05/25 03:26:26;;;;;;;7.82;7.03;;;;;;;9.05;100.00;101294.03;4963596;28;20741;-67
2022/05/25 03:28:51;;;;;;;8.60;7.00;;;;;;;9.03;100.00;101287.91;4948968;28;20035;-67
2022/05/25 03:31:16;;;;;;;7.43;6.30;;;;;;;9.04;100.00;101289.69;4948608;28;20571;-67
2022/05/25 03:33:42;;;;;;;9.93;7.22;;;;;;;9.06;100.00;101292.34;4948887;28;20038;-67
2022/05/25 03:36:07;;;;;;;7.05;6.40;;;;;;;9.02;100.00;101291.31;4948586;28;20062;-67
2022/05/25 03:38:33;;;;;;;9.25;6.50;;;;;;;9.00;100.00;101299.00;4949812;28;20035;-67
2022/05/25 03:41:00;;;;;;;10.00;6.45;;;;;;;8.98;100.00;101295.44;4950165;28;20486;-67
2022/05/25 03:43:31;;;;;;;9.52;6.65;;;;;;;8.98;100.00;101300.63;4952852;28;20033;-67
2022/05/25 03:45:56;;;;;;;7.90;6.13;;;;;;;8.95;100.00;101303.06;4968570;28;20166;-67
2022/05/25 03:48:22;;;;;;;12.70;5.72;;;;;;;8.96;100.00;101311.72;4968510;28;20094;-67
2022/05/25 03:50:47;;;;;;;12.02;7.00;;;;;;;8.95;100.00;101312.53;4968527;28;20205;-67
2022/05/25 03:53:14;;;;;;;8.82;6.65;;;;;;;8.96;100.00;101312.59;4968018;28;20026;-67
2022/05/25 03:55:40;;;;;;;6.78;6.00;;;;;;;8.92;100.00;101312.38;4949772;28;20075;-67
2022/05/25 03:58:06;;;;;;;7.18;6.47;;;;;;;8.92;100.00;101317.56;4949527;28;20035;-67
2022/05/25 04:00:31;;;;;;;11.55;7.15;;;;;;;8.90;100.00;101322.66;4948557;28;20026;-67
2022/05/25 04:02:59;;;;;;;9.75;6.38;;;;;;;8.88;100.00;101325.19;4949366;28;20030;-67
2022/05/25 04:05:25;;;;;;;7.60;5.95;;;;;;;8.87;100.00;101319.91;4963903;28;20031;-67
2022/05/25 04:07:51;;;;;;;8.27;5.93;;;;;;;8.86;100.00;101326.78;4949001;28;20034;-67
2022/05/25 04:10:19;;;;;;;8.40;5.85;;;;;;;8.89;100.00;101329.53;4965802;28;20081;-67
2022/05/25 04:12:45;;;;;;;10.55;6.63;;;;;;;8.86;100.00;101326.78;4967883;28;20023;-67
2022/05/25 04:15:15;;;;;;;6.68;5.85;;;;;;;8.82;100.00;101327.47;4968411;28;20073;-67
2022/05/25 04:17:40;;;;;;;7.50;6.70;;;;;;;8.83;100.00;101331.81;4967423;28;20177;-67
2022/05/25 04:20:06;;;;;;;7.90;6.22;;;;;;;8.82;100.00;101327.47;4950661;28;20494;-67
2022/05/25 04:22:32;;;;;;;10.43;6.57;;;;;;;8.85;100.00;101332.75;4967888;28;20027;-67
2022/05/25 04:25:02;;;;;;;7.00;6.28;;;;;;;8.87;100.00;101333.72;4968524;28;20509;-67
2022/05/25 04:27:28;;;;;;;9.70;6.57;;;;;;;8.86;100.00;101331.97;4968103;28;20018;-67
2022/05/25 04:29:53;;;;;;;8.85;6.32;;;;;;;8.89;100.00;101332.09;4968644;28;20165;-67
2022/05/25 04:32:19;;;;;;;11.65;6.43;;;;;;;8.91;100.00;101336.44;4968105;28;20472;-67
2022/05/25 04:34:44;;;;;;;6.65;5.93;;;;;;;8.95;100.00;101334.09;4967878;28;20031;-67
2022/05/25 04:39:54;;;;;;;8.07;6.00;;;;;;;9.00;100.00;101342.06;4967824;28;20529;-67
2022/05/25 04:42:20;;;;;;;8.82;5.68;;;;;;;9.05;100.00;101343.16;4949375;28;20063;-67
2022/05/25 04:44:46;;;;;;;6.85;6.15;;;;;;;9.09;100.00;101342.47;4949848;28;20483;-67
2022/05/25 04:47:12;;;;;;;9.98;6.07;;;;;;;9.14;100.00;101340.09;4964899;28;20198;-67
2022/05/25 04:49:42;;;;;;;7.68;5.65;;;;;;;9.16;100.00;101345.34;4967379;28;20027;-67
2022/05/25 04:52:07;;;;;;;12.80;6.18;;;;;;;9.19;100.00;101351.53;4966995;28;20023;-67
2022/05/25 04:54:33;;;;;;;12.52;5.55;;;;;;;9.26;100.00;101350.13;4967737;28;20139;-67
2022/05/25 04:59:43;;;;;;;9.95;5.72;;;;;;;9.29;100.00;101352.84;4955490;28;20053;-67
2022/05/25 05:02:08;;;;;;;10.00;6.03;;;;;;;9.33;100.00;101357.38;4965312;28;20027;-67
2022/05/25 05:04:33;;;;;;;6.25;5.70;;;;;;;9.37;100.00;101351.50;4952092;28;20019;-67
2022/05/25 05:06:58;;;;;;;6.82;5.20;;;;;;;9.45;100.00;101358.72;4949080;28;20461;-67
2022/05/25 05:09:24;;;;;;;9.80;5.43;;;;;;;9.51;100.00;101371.94;4952474;28;20423;-67
2022/05/25 05:11:49;;;;;;;8.63;5.82;;;;;;;9.53;100.00;101362.56;4959760;28;20786;-67
2022/05/25 05:14:14;;;;;;;6.05;5.45;;;;;;;9.54;100.00;101359.13;4962743;28;20026;-67
2022/05/25 05:16:40;;;;;;;10.85;5.63;;;;;;;9.60;100.00;101364.59;4947604;29;20054;-67
2022/05/25 05:19:05;;;;;;;7.07;5.70;;;;;;;9.66;100.00;101357.91;4948632;29;20031;-67
2022/05/25 05:21:31;;;;;;;5.82;5.22;;;;;;;9.73;100.00;101365.13;4948591;28;20057;-67
2022/05/25 05:23:56;;;;;;;10.80;5.35;;;;;;;9.83;100.00;101356.94;4948587;28;20086;-67
2022/05/25 05:26:21;;;;;;;7.68;4.90;;;;;;;9.92;100.00;101359.06;4949251;28;20046;-67
2022/05/25 05:28:49;;;;;;;10.30;5.95;;;;;;;9.98;100.00;101358.44;4965623;28;20030;-67
2022/05/25 05:31:15;;;;;;;8.00;5.72;;;;;;;10.08;100.00;101352.81;4963206;28;20641;-67
2022/05/25 05:33:40;;;;;;;9.68;5.82;;;;;;;10.18;100.00;101355.81;4964632;28;20065;-67
2022/05/25 05:36:14;;;;;;;8.38;5.53;;;;;;;10.16;100.00;101344.50;4967317;28;20043;-67
2022/05/25 05:38:49;;;;;;;9.80;5.88;;;;;;;10.26;100.00;101345.75;4951565;29;20043;-67
2022/05/25 05:41:16;;;;;;;9.98;5.68;;;;;;;10.35;100.00;101347.81;4956038;28;20458;-67
2022/05/25 05:43:41;;;;;;;8.55;5.07;;;;;;;10.45;100.00;101342.22;4970912;28;20045;-67
2022/05/25 05:46:08;;;;;;;7.05;5.20;;;;;;;10.48;100.00;101342.38;4970367;28;20027;-67
2022/05/25 05:48:36;;;;;;;8.52;5.68;;;;;;;10.53;100.00;101339.97;4970531;28;20471;-67
2022/05/25 05:51:04;;;;;;;8.38;5.68;;;;;;;10.56;100.00;101335.78;4971630;28;20487;-67
2022/05/25 05:53:30;;;;;;;6.40;5.80;;;;;;;10.57;100.00;101336.69;4964915;28;20031;-67
2022/05/25 05:55:57;;;;;;;9.15;5.90;;;;;;;10.65;100.00;101345.63;4960038;28;20038;-66
2022/05/25 05:58:23;;;;;;;8.25;5.88;;;;;;;10.85;100.00;101342.06;4970375;28;20033;-68
2022/05/25 06:00:48;;;;;;;8.57;5.57;;;;;;;10.96;100.00;101339.88;4970599;28;20030;-67
2022/05/25 06:03:15;;;;;;;9.18;6.10;;;;;;;11.02;100.00;101348.78;4969553;28;20113;-67
2022/05/25 06:05:41;;;;;;;9.65;5.63;;;;;;;11.17;100.00;101351.06;4970507;28;20030;-67
2022/05/25 06:08:13;;;;;;;9.48;6.07;;;;;;;11.34;100.00;101349.94;4970776;28;20108;-67
2022/05/25 06:10:40;;;;;;;7.88;5.78;;;;;;;11.53;100.00;101351.50;4970702;28;20547;-68
2022/05/25 06:13:07;;;;;;;9.32;6.65;;;;;;;11.50;100.00;101357.47;4970344;28;20027;-67
2022/05/25 06:21:01;;;;;;;8.05;5.47;;;;;;;11.93;100.00;101374.50;4970672;28;20415;-67
2022/05/25 06:23:26;;;;;;;10.38;5.30;;;;;;;12.07;100.00;101372.41;4970243;28;20038;-67
2022/05/25 06:25:51;;;;;;;8.27;5.78;;;;;;;12.17;100.00;101373.63;4970599;28;20488;-67
2022/05/25 06:28:17;;;;;;;8.80;5.68;;;;;;;12.23;100.00;101373.84;4969353;28;20541;-67
2022/05/25 06:30:42;;;;;;;6.57;5.30;;;;;;;12.33;100.00;101388.00;4969880;28;20117;-67
2022/05/25 06:33:07;;;;;;;8.20;5.30;;;;;;;12.22;100.00;101379.84;4969849;28;20027;-67
2022/05/25 06:35:34;;;;;;;9.68;5.93;;;;;;;12.40;100.00;101378.69;4969944;28;20581;-67
2022/05/25 06:38:00;;;;;;;9.02;6.40;;;;;;;12.41;99.20;101388.28;4970018;28;20422;-67
2022/05/25 06:40:26;;;;;;;11.32;6.90;;;;;;;12.51;99.08;101384.25;4952476;28;20034;-67
2022/05/25 06:42:51;;;;;;;7.88;7.07;;;;;;;12.36;99.45;101389.00;4970238;28;20041;-68
2022/05/25 06:45:17;;;;;;;9.32;6.90;;;;;;;12.61;99.25;101386.31;4969944;28;20410;-67
2022/05/25 06:47:43;;;;;;;8.68;7.18;;;;;;;12.68;98.76;101393.47;4970453;28;20041;-67
2022/05/25 06:50:09;;;;;;;11.32;8.60;;;;;;;12.68;98.25;101388.28;4970304;28;20298;-67
2022/05/25 06:52:34;;;;;;;10.90;9.10;;;;;;;12.69;98.88;101394.38;4970220;28;20580;-67
2022/05/25 06:55:00;;;;;;;10.90;8.63;;;;;;;12.87;98.71;101394.06;4970323;28;20033;-67
2022/05/25 06:57:26;;;;;;;11.50;10.35;;;;;;;12.91;97.67;101390.75;4970046;28;20398;-67
2022/05/25 06:59:52;;;;;;;15.55;10.32;;;;;;;13.08;98.33;101392.97;4970230;28;20047;-67
2022/05/25 07:02:17;;;;;;;10.90;9.73;;;;;;;13.15;96.33;101397.50;4970021;28;20527;-67
2022/05/25 07:04:43;;;;;;;10.00;8.48;;;;;;;13.02;96.23;101398.00;4970054;28;20031;-67
2022/05/25 07:07:08;;;;;;;10.70;9.57;;;;;;;13.07;96.97;101402.50;4969518;28;20394;-67
2022/05/25 07:09:36;;;;;;;9.95;8.80;;;;;;;13.13;96.98;101408.72;4969776;28;20042;-67
2022/05/25 07:12:02;;;;;;;8.98;8.07;;;;;;;13.11;96.59;101408.69;4969791;28;20038;-67
2022/05/25 07:14:27;;;;;;;11.30;8.68;;;;;;;13.11;97.43;101411.28;4969828;28;20055;-67
2022/05/25 07:16:54;;;;;;;8.95;8.05;;;;;;;13.49;97.57;101408.03;4969582;28;20037;-67
2022/05/25 07:19:20;;;;;;;12.25;8.10;;;;;;;13.81;96.67;101412.44;4968995;28;20050;-66
2022/05/25 07:21:45;;;;;;;8.57;7.00;;;;;;;14.09;94.12;101423.63;4969896;28;20037;-67
2022/05/25 07:24:10;;;;;;;8.45;6.88;;;;;;;14.41;94.11;101423.56;4969635;28;20034;-67
2022/05/25 07:26:36;;;;;;;8.60;7.07;;;;;;;14.64;90.50;101417.19;4969594;28;20114;-68
2022/05/25 07:29:02;;;;;;;11.05;6.72;;;;;;;14.40;89.19;101429.63;4969547;28;20030;-67
2022/05/25 07:31:33;;;;;;;8.10;6.75;;;;;;;14.42;88.46;101432.28;4969615;28;20510;-67
2022/05/25 07:34:06;;;;;;;7.75;6.68;;;;;;;14.22;89.13;101434.38;4969510;28;20290;-67
2022/05/25 07:36:33;;;;;;;9.45;6.82;;;;;;;13.84;88.68;101428.16;4969370;28;20034;-67
2022/05/25 07:39:01;;;;;;;8.00;7.20;;;;;;;14.03;90.28;101423.47;4969504;28;20042;-67
2022/05/25 07:41:27;;;;;;;9.10;6.35;;;;;;;14.37;92.12;101429.53;4969560;28;20085;-67
2022/05/25 07:43:57;;;;;;;8.63;6.65;;;;;;;14.61;88.40;101428.41;4969042;28;20042;-68
2022/05/25 07:46:25;;;;;;;8.70;6.55;;;;;;;14.83;86.47;101428.06;4969262;28;20539;-67
2022/05/25 07:48:50;;;;;;;7.63;6.38;;;;;;;14.92;85.80;101427.41;4969241;28;20026;-67
2022/05/25 07:51:16;;;;;;;11.57;7.20;;;;;;;15.09;85.84;101435.63;4968525;28;20769;-67
2022/05/25 07:53:57;;;;;;;8.60;6.70;;;;;;;15.16;84.59;101437.53;4969031;28;20027;-67
2022/05/25 07:56:24;;;;;;;6.72;6.03;;;;;;;15.31;84.64;101439.59;4969219;28;20542;-68
2022/05/25 07:58:49;;;;;;;7.10;5.78;;;;;;;15.64;83.48;101439.38;4969197;28;20448;-67
2022/05/25 08:05:43;;;;;;;10.05;6.10;;;;;;;15.51;82.05;101436.53;4969239;28;20062;-67
2022/05/25 08:06:49;;;;;;;5.95;4.75;;;;;;;15.39;82.79;101449.31;4969148;28;20574;-67
2022/05/25 08:09:14;;;;;;;7.43;5.15;;;;;;;15.28;81.75;101442.13;4969205;28;20142;-67
2022/05/25 08:11:40;;;;;;;7.43;5.22;;;;;;;15.31;82.89;101442.19;4968930;28;20562;-67
2022/05/25 08:14:05;;;;;;;7.63;4.95;;;;;;;15.24;82.26;101450.75;4968603;28;20052;-67
2022/05/25 08:16:31;;;;;;;6.40;4.05;;;;;;;15.39;82.82;101444.09;4969175;28;20027;-67
2022/05/25 08:18:56;;;;;;;7.78;4.80;;;;;;;15.47;81.05;101446.03;4968857;28;20022;-67
2022/05/25 08:21:21;;;;;;;5.15;4.45;;;;;;;15.70;80.85;101444.75;4968841;28;20051;-67
2022/05/25 08:23:47;;;;;;;5.15;4.28;;;;;;;15.93;80.48;101453.06;4968365;28;20026;-67
2022/05/25 08:26:12;;;;;;;6.97;4.22;;;;;;;15.88;79.40;101448.59;4968798;28;20500;-67
2022/05/25 08:28:37;;;;;;;6.00;3.55;;;;;;;16.07;80.14;101442.00;4968889;28;20114;-67
2022/05/25 08:31:02;;;;;;;7.82;3.88;;;;;;;16.11;79.19;101445.56;4968099;28;20042;-68
2022/05/25 08:33:28;;;;;;;4.25;3.85;;;;;;;16.31;79.15;101443.31;4968852;28;20023;-67
2022/05/25 08:35:53;;;;;;;6.95;4.03;;;;;;;16.30;77.33;101442.41;4968719;28;20030;-67
2022/05/25 08:38:21;;;;;;;6.40;3.25;;;;;;;16.37;77.24;101437.31;4968111;28;20034;-68
2022/05/25 08:40:48;;;;;;;4.80;3.35;;;;;;;16.53;76.61;101434.09;4968484;28;20034;-67
2022/05/25 08:43:22;;;;;;;4.55;2.53;;;;;;;16.49;76.10;101437.53;4968548;28;20769;-67
2022/05/25 08:45:53;;;;;;;6.15;3.05;;;;;;;16.87;77.13;101432.88;4968704;28;20053;-67
2022/05/25 08:48:22;;;;;;;5.80;2.88;;;;;;;17.20;74.67;101434.25;4968243;28;20035;-67
2022/05/25 08:50:53;;;;;;;5.05;2.88;;;;;;;17.24;74.79;101428.19;4968539;28;20170;-67
2022/05/25 08:53:20;;;;;;;7.75;2.97;;;;;;;16.99;73.75;101421.69;4967908;28;20153;-68
2022/05/25 08:56:17;;;;;;;5.88;3.05;;;;;;;16.68;71.04;101428.22;4968271;28;20118;-67
2022/05/25 08:58:59;;;;;;;6.88;3.03;;;;;;;17.02;71.92;101427.88;4968540;28;20035;-67
2022/05/25 09:01:30;;;;;;;6.93;2.63;;;;;;;17.32;70.91;101420.47;4968333;28;20039;-67
2022/05/25 09:04:07;;;;;;;;;;;;;;;17.42;70.93;101424.06;4971905;28;20505;-67
2022/05/25 09:06:41;;;;;;;5.72;2.15;;;;;;;17.72;70.50;101425.28;4972901;28;20009;-67
2022/05/25 09:09:24;;;;;;;4.18;1.95;;;;;;;18.19;68.19;101423.19;4972208;28;20037;-67
2022/05/25 09:11:54;;;;;;;5.85;2.45;;;;;;;18.46;67.74;101424.28;4972181;28;20038;-67
2022/05/25 09:14:48;;;;;;;6.55;2.10;;;;;;;18.74;66.64;101428.00;4971601;28;20077;-67
2022/05/25 09:17:22;;;;;;;3.08;1.90;;;;;;;19.00;65.48;101422.91;4972017;28;20026;-67
2022/05/25 09:19:47;;;;;;;4.65;1.98;;;;;;;19.14;62.94;101428.28;4971906;28;20050;-68
2022/05/25 09:22:19;;;;;;;4.15;2.00;;;;;;;19.31;61.87;101440.63;4971968;28;20072;-67
2022/05/25 09:24:44;;;;;;;6.63;2.13;;;;;;;19.19;61.67;101434.44;4986989;28;20026;-67
2022/05/25 09:27:12;;;;;;;5.13;2.22;;;;;;;18.74;59.71;101430.63;4971831;28;20038;-67
2022/05/25 09:29:38;;;;;;;6.57;2.35;;;;;;;18.99;61.27;101438.66;4971881;28;20034;-67
2022/05/25 09:32:37;;;;;;;5.47;1.83;;;;;;;18.86;59.97;101438.59;4972106;28;20093;-67
2022/05/25 09:35:15;;;;;;;4.80;1.55;;;;;;;18.81;59.09;101445.56;4971532;28;20106;-67
2022/05/25 09:37:59;;;;;;;3.00;1.27;;;;;;;18.91;61.86;101442.13;4971357;28;20046;-67
2022/05/25 09:40:34;;;;;;;4.25;1.85;;;;;;;19.12;60.40;101437.94;4971948;28;20091;-68
2022/05/25 09:43:03;;;;;;;4.78;1.10;;;;;;;19.31;56.12;101445.88;4971289;28;20046;-68
2022/05/25 09:45:42;;;;;;;5.40;1.08;;;;;;;18.87;54.62;101442.09;4971092;28;20118;-67
2022/05/25 09:48:13;;;;;;;2.58;1.00;;;;;;;18.64;56.22;101454.19;4971753;28;20033;-67
2022/05/25 09:50:43;;;;;;;3.60;1.45;;;;;;;18.61;54.85;101448.91;4971471;28;20554;-68
2022/05/25 09:53:12;;;;;;;5.38;0.98;;;;;;;18.29;56.93;101449.50;4971273;28;20493;-67
2022/05/25 09:55:51;;;;;;;2.95;0.70;;;;;;;18.51;57.77;101439.22;4971544;28;20031;-67
2022/05/25 09:58:31;;;;;;;3.33;0.80;;;;;;;18.65;57.64;101449.81;4971171;28;20031;-67
2022/05/25 10:01:00;;;;;;;2.33;0.75;;;;;;;18.64;57.30;101458.53;4971363;28;20030;-68
2022/05/25 10:03:35;;;;;;;2.58;0.85;;;;;;;18.47;55.82;101462.78;4971517;28;20494;-67
2022/05/25 10:06:15;;;;;;;1.92;0.90;;;;;;;18.40;56.30;101471.47;4970919;28;20019;-67
2022/05/25 10:08:41;;;;;;;2.63;0.60;;;;;;;18.18;54.96;101465.13;4971758;28;20058;-67
2022/05/25 10:11:29;;;;;;;2.22;0.70;;;;;;;18.29;56.34;101462.63;4971527;28;20031;-68
2022/05/25 10:13:56;;;;;;;4.20;0.60;;;;;;;18.21;53.88;101468.66;4970303;28;20490;-67
2022/05/25 10:16:28;;;;;;;3.95;0.73;;;;;;;18.37;53.62;101458.31;4970484;28;20027;-67
2022/05/25 10:18:54;;;;;;;1.40;0.50;;;;;;;18.80;54.92;101459.53;4970979;28;20033;-67
2022/05/25 10:21:35;;;;;;;1.35;0.50;;;;;;;19.27;53.74;101455.50;4970842;28;20047;-67
2022/05/25 10:24:12;;;;;;;2.05;1.05;;;;;;;19.51;50.98;101459.13;4970906;28;20372;-67
2022/05/25 10:26:44;;;;;;;2.95;0.77;;;;;;;19.16;51.42;101460.69;4970365;28;20498;-67
2022/05/25 10:29:12;;;;;;;2.20;0.60;;;;;;;19.15;51.93;101464.19;4971003;28;20089;-67
2022/05/25 10:37:39;;;;;;;3.42;0.65;;;;;;;19.49;52.19;101450.34;4970994;28;20054;-67
2022/05/25 10:40:07;;;;;;;2.78;0.95;;;;;;;19.68;52.69;101445.16;4970241;28;20022;-67
2022/05/25 10:42:37;;;;;;;3.10;0.80;;;;;;;19.66;50.46;101442.53;4970381;28;20038;-67
2022/05/25 10:45:10;;;;;;;2.60;0.60;;;;;;;19.43;50.74;101442.44;4970362;28;20101;-67
2022/05/25 10:47:57;;;;;;;3.90;0.80;;;;;;;18.79;49.32;101432.44;4970459;28;20065;-68
2022/05/25 10:50:27;;;;;;;2.03;0.70;;;;;;;18.31;51.05;101437.28;4970863;28;20037;-67
2022/05/25 10:53:08;;;;;;;5.95;0.93;;;;;;;17.79;52.26;101441.09;4970447;28;20434;-68
2022/05/25 10:55:51;;;;;;;1.50;0.50;;;;;;;17.72;54.35;101456.72;4969846;28;20026;-68
2022/05/25 10:58:40;;;;;;;2.40;0.60;;;;;;;17.79;54.57;101448.97;4970140;28;20031;-67
2022/05/25 11:01:20;;;;;;;2.58;0.60;;;;;;;17.91;55.17;101451.72;4969950;28;20090;-67
2022/05/25 11:04:02;;;;;;;1.92;0.55;;;;;;;18.10;55.48;101444.03;4969948;28;20242;-67
2022/05/25 11:07:06;;;;;;;1.90;0.75;;;;;;;17.73;52.84;101442.78;4969922;28;20038;-67
2022/05/25 11:09:37;;;;;;;1.65;0.50;;;;;;;17.68;53.78;101454.97;4969889;28;20039;-67
2022/05/25 11:12:27;;;;;;;1.45;0.82;;;;;;;17.43;53.26;101449.38;4969796;28;20201;-67
2022/05/25 11:15:13;;;;;;;4.50;0.77;;;;;;;17.60;53.48;101440.88;4970102;28;20447;-67
2022/05/25 11:17:57;;;;;;;2.35;0.52;;;;;;;17.72;53.25;101448.88;4969931;28;20031;-67
2022/05/25 11:20:38;;;;;;;2.05;0.80;;;;;;;17.68;53.63;101443.59;4969763;28;20088;-67
2022/05/25 11:23:18;;;;;;;3.38;0.80;;;;;;;17.92;52.78;101445.59;4969536;28;20058;-67
2022/05/25 11:26:04;;;;;;;1.80;0.50;;;;;;;18.31;53.51;101445.16;4968825;28;20125;-67
2022/05/25 11:28:50;;;;;;;1.25;0.52;;;;;;;18.45;52.30;101437.41;4967825;28;20741;-67
2022/05/25 11:31:43;;;;;;;0.90;0.55;;;;;;;18.89;52.75;101430.72;4968996;28;20489;-67
2022/05/25 11:34:33;;;;;;;5.53;0.65;;;;;;;18.95;50.44;101437.78;4969257;28;20129;-67
2022/05/25 11:37:18;;;;;;;3.45;0.73;;;;;;;18.85;49.32;101426.34;4961458;28;20396;-67
2022/05/25 11:40:03;;;;;;;3.63;0.75;;;;;;;18.99;50.11;101425.53;4968536;28;20022;-67
2022/05/25 11:42:56;;;;;;;0.98;0.40;;;;;;;19.36;50.18;101428.41;4963226;28;20371;-67
2022/05/25 11:45:39;;;;;;;1.55;0.60;;;;;;;19.65;50.95;101430.28;4966725;28;20033;-67
2022/05/25 11:48:21;;;;;;;4.65;0.90;;;;;;;19.58;49.74;101417.97;4967980;28;20027;-67
2022/05/25 11:51:08;;;;;;;4.57;0.70;;;;;;;19.62;48.34;101418.88;4968564;28;20054;-67
2022/05/25 11:54:04;;;;;;;4.20;0.90;;;;;;;19.81;50.02;101417.16;4968098;28;20034;-67
2022/05/25 11:56:44;;;;;;;3.33;0.80;;;;;;;19.93;48.75;101421.59;4961830;28;20035;-68
2022/05/25 11:59:13;;;;;;;4.30;0.80;;;;;;;19.64;48.42;101417.13;4968976;28;20023;-68
2022/05/25 12:02:13;;;;;;;3.45;0.80;;;;;;;19.39;49.07;101433.66;4959660;28;20046;-68
2022/05/25 12:04:46;;;;;;;4.38;0.80;;;;;;;18.92;48.42;101417.66;4956276;28;20077;-68